tititudorancea.com
Station Historical Data
Daily Summary for July 7, 2018 Units:  Metric    English   Both
« Previous Day
Next Day »
Daily Weekly Monthly Yearly Custom
  High: Low: Average:
Temperature: -17.8 °C 6.2 °C 8.2 °C
Dew Point: -17.8 °C 2.9 °C 4.6 °C
Humidity: Humidity % 66 % 78 %
Wind Speed: 0 km/h 9.3 km/h 26.4 km/h
Wind Gust: 0 km/h - -
Wind:- - West
Pressure: 0 hPa 1003.3 hPa -
Precipitation: 5.08 mm    
Historical Graphs
 
 
Ararat weather Find more about Weather in Ararat, AU


 



 


Tabular Data for July 7, 2018
Time Temperature Dew Point Pressure Wind Wind Speed Wind Gust Humidity Rainfall Rate (Hourly)
-17.8 °C -17.8 °C 0 hPa Calm     Humidity % 0 mm
00:04 8.3 °C 6.3 °C 1004.3 hPa North 38.9 km/h 21.2 km/h 87 % 0 mm
00:09 8.3 °C 6.3 °C 1004.3 hPa NNW 31.5 km/h 21.9 km/h 87 % 0 mm
00:14 8.3 °C 6.4 °C 1004.3 hPa NNW 27.8 km/h 17.2 km/h 88 % 0 mm
00:19 8.2 °C 6.3 °C 1004.3 hPa North 22.2 km/h 21.9 km/h 88 % 0.25 mm
00:24 8.2 °C 6.4 °C 1004.3 hPa North 35.2 km/h 23 km/h 89 % 0.25 mm
00:29 8.1 °C 6.4 °C 1004.3 hPa North 20.9 km/h 20.4 km/h 89 % 0.25 mm
00:34 8.1 °C 6.5 °C 1004.6 hPa North 29.6 km/h 16.7 km/h 90 % 0.51 mm
00:39 8.1 °C 6.5 °C 1005 hPa NW 35.2 km/h 20.4 km/h 90 % 0.51 mm
00:44 8.1 °C 6.5 °C 1005 hPa North 38.6 km/h 31.4 km/h 90 % 0.51 mm
00:49 8 °C 6.4 °C 1005 hPa NW 37 km/h 26.4 km/h 90 % 0.76 mm
00:54 7.7 °C 6 °C 1005 hPa NW 38.9 km/h 22.5 km/h 89 % 0.76 mm
00:59 7.5 °C 4.9 °C 1004.3 hPa WNW 27.8 km/h 23 km/h 84 % 0.76 mm
01:04 7.7 °C 3.9 °C 1004.3 hPa WNW 29.6 km/h 25.1 km/h 77 % 0.76 mm
01:09 7.9 °C 3.2 °C 1003.9 hPa NNW 18.5 km/h 12.1 km/h 72 % 0.76 mm
01:14 7.9 °C 2.9 °C 1003.9 hPa WNW 22.2 km/h 16.3 km/h 71 % 0.76 mm
01:19 8 °C 3.1 °C 1004.3 hPa WNW 31.5 km/h 28 km/h 71 % 0.51 mm
01:24 8.2 °C 3.2 °C 1004.3 hPa WNW 27.8 km/h 18.7 km/h 71 % 0.51 mm
01:29 8.1 °C 3.3 °C 1004.3 hPa WNW 24.1 km/h 15.1 km/h 72 % 0.51 mm
01:34 8.2 °C 3.8 °C 1004.3 hPa NW 29 km/h 23.3 km/h 74 % 0.51 mm
01:39 8.4 °C 4.1 °C 1004.3 hPa WNW 37 km/h 21.1 km/h 74 % 0.51 mm
01:44 8.4 °C 4.3 °C 1003.9 hPa NW 33.3 km/h 14.2 km/h 75 % 0.25 mm
01:49 8.4 °C 4.7 °C 1004.3 hPa NW 24.1 km/h 17.2 km/h 77 % 0 mm
01:54 8.6 °C 4.6 °C 1004.3 hPa WNW 20.4 km/h 18.3 km/h 76 % 0 mm
01:59 8.7 °C 4.5 °C 1004.3 hPa WNW 40.7 km/h 30.6 km/h 75 % 0 mm
02:04 8.7 °C 4.6 °C 1004.3 hPa WNW 37 km/h 28.3 km/h 75 % 0 mm
02:09 8.7 °C 4.5 °C 1004.3 hPa WNW 31.5 km/h 20.4 km/h 75 % 0 mm
02:14 8.7 °C 4.6 °C 1004.3 hPa West 22.2 km/h 19.2 km/h 75 % 0 mm
02:19 8.8 °C 4.4 °C 1003.9 hPa WNW 40.7 km/h 20.8 km/h 74 % 0 mm
02:24 8.7 °C 4.3 °C 1003.9 hPa WNW 37 km/h 22.5 km/h 74 % 0 mm
02:29 8.7 °C 4.3 °C 1003.9 hPa WNW 29.6 km/h 11.3 km/h 74 % 0 mm
02:34 8.7 °C 4.3 °C 1003.9 hPa WNW 27.8 km/h 22.7 km/h 74 % 0 mm
02:39 8.7 °C 4.3 °C 1003.9 hPa NW 25.9 km/h 18 km/h 74 % 0 mm
02:44 8.6 °C 4.2 °C 1003.6 hPa WNW 20.4 km/h 13.2 km/h 74 % 0 mm
02:49 8.5 °C 4.3 °C 1003.6 hPa NW 24.1 km/h 16.7 km/h 75 % 0 mm
02:54 8.4 °C 4.1 °C 1003.6 hPa WNW 29.6 km/h 18.2 km/h 74 % 0 mm
02:59 8.4 °C 4.1 °C 1003.6 hPa WNW 24.1 km/h 14.5 km/h 74 % 0 mm
03:04 8.6 °C 3.8 °C 1003.6 hPa NW 40.7 km/h 31.2 km/h 72 % 0 mm
03:09 8.7 °C 3.9 °C 1003.9 hPa WNW 32.2 km/h 25.6 km/h 72 % 0.25 mm
03:14 8.7 °C 3.8 °C 1003.6 hPa WNW 38.9 km/h 17.1 km/h 71 % 0.25 mm
03:19 8.7 °C 3.6 °C 1003.6 hPa WNW 29.6 km/h 26.7 km/h 70 % 0.25 mm
03:24 8.8 °C 3.6 °C 1003.6 hPa NW 29.6 km/h 15.9 km/h 70 % 0.25 mm
03:29 8.7 °C 3.5 °C 1003.3 hPa WNW 44.4 km/h 20.1 km/h 70 % 0.25 mm
03:34 8.7 °C 3.5 °C 1003.3 hPa WNW 35.2 km/h 20.1 km/h 70 % 0.25 mm
03:39 8.6 °C 3.4 °C 1003.3 hPa West 44.4 km/h 23.3 km/h 70 % 0.25 mm
03:44 8.5 °C 3.3 °C 1003.3 hPa WNW 31.5 km/h 26.2 km/h 70 % 0.25 mm
03:49 8.5 °C 3.6 °C 1003.3 hPa NW 33.3 km/h 23 km/h 71 % 0.25 mm
03:54 8.5 °C 3.6 °C 1003.3 hPa WNW 31.5 km/h 20.3 km/h 71 % 0.25 mm
03:59 8.6 °C 3.6 °C 1003.3 hPa North 33.3 km/h 30.7 km/h 71 % 0.25 mm
04:04 8.6 °C 3.6 °C 1003.6 hPa NW 33.3 km/h 15.9 km/h 71 % 0.25 mm
04:09 8.6 °C 3.8 °C 1003.6 hPa WNW 24.1 km/h 15 km/h 72 % 0 mm
04:14 8.4 °C 3.8 °C 1003.6 hPa North 29.6 km/h 14.3 km/h 73 % 0 mm
04:19 8.3 °C 3.9 °C 1003.3 hPa NW 31.5 km/h 23.5 km/h 74 % 0 mm
04:24 8.3 °C 3.9 °C 1003.6 hPa North 33.8 km/h 24.3 km/h 74 % 0 mm
04:29 8.3 °C 3.8 °C 1003.6 hPa North 33.3 km/h 26.9 km/h 73 % 0 mm
04:34 8.2 °C 3.8 °C 1003.6 hPa WNW 30.6 km/h 28.5 km/h 74 % 0 mm
04:39 8.1 °C 3.9 °C 1003.6 hPa North 25.9 km/h 20.3 km/h 75 % 0 mm
04:44 8.1 °C 3.9 °C 1003.6 hPa NW 25.9 km/h 21.1 km/h 75 % 0 mm
04:49 8.1 °C 4.1 °C 1003.6 hPa North 29.6 km/h 15.6 km/h 76 % 0 mm
04:54 7.9 °C 4.2 °C 1003.6 hPa North 20.4 km/h 17.2 km/h 77 % 0 mm
04:59 7.9 °C 4.1 °C 1003.6 hPa North 29.6 km/h 22.2 km/h 77 % 0 mm
05:04 7.8 °C 4.1 °C 1003.3 hPa West 40.7 km/h 21.2 km/h 77 % 0 mm
05:09 7.7 °C 4.1 °C 1003.6 hPa WNW 24.1 km/h 17.4 km/h 78 % 0 mm
05:14 7.7 °C 4.1 °C 1003.6 hPa WNW 27.8 km/h 16.9 km/h 78 % 0 mm
05:19 7.6 °C 4 °C 1003.6 hPa WNW 25.9 km/h 21.9 km/h 78 % 0 mm
05:24 7.6 °C 4.2 °C 1003.6 hPa WNW 25.9 km/h 20.9 km/h 79 % 0 mm
05:29 7.5 °C 4.1 °C 1003.6 hPa NW 24.1 km/h 12.9 km/h 79 % 0 mm
05:34 7.5 °C 4.1 °C 1003.6 hPa West 25.9 km/h 15.4 km/h 79 % 0 mm
05:39 7.4 °C 3.8 °C 1003.9 hPa WNW 27.8 km/h 17.1 km/h 78 % 0 mm
05:44 7.4 °C 4.1 °C 1003.9 hPa WNW 22.2 km/h 10.9 km/h 79 % 0 mm
05:49 7.5 °C 4.1 °C 1003.9 hPa WNW 31.5 km/h 15.8 km/h 79 % 0 mm
05:54 7.6 °C 4.2 °C 1003.9 hPa WNW 14.8 km/h 9.7 km/h 79 % 0 mm
05:59 7.5 °C 4.1 °C 1004.3 hPa WNW 16.7 km/h 8.9 km/h 79 % 0 mm
06:04 7.4 °C 4.2 °C 1004.3 hPa North 18.5 km/h 11.1 km/h 80 % 0 mm
06:09 7.3 °C 4.2 °C 1004.3 hPa WNW 14.8 km/h 9.7 km/h 81 % 0 mm
06:14 7.2 °C 4.3 °C 1004.6 hPa West 18.5 km/h 12.6 km/h 82 % 0.25 mm
06:19 7.1 °C 4.4 °C 1004.6 hPa West 16.7 km/h 12.7 km/h 83 % 0.25 mm
06:24 6.9 °C 4.2 °C 1004.6 hPa West 20.4 km/h 14.3 km/h 83 % 0.25 mm
06:29 6.8 °C 4.3 °C 1005 hPa North 16.1 km/h 15.3 km/h 84 % 0.51 mm
06:34 6.7 °C 4.4 °C 1005 hPa North 18.5 km/h 10.8 km/h 85 % 0.51 mm
06:39 6.6 °C 4.4 °C 1005.3 hPa North 16.7 km/h 13.8 km/h 86 % 0.51 mm
06:44 6.5 °C 4.5 °C 1005.3 hPa WSW 24.1 km/h 12.9 km/h 87 % 0.76 mm
06:49 6.5 °C 4.5 °C 1005.3 hPa North 18.5 km/h 12.7 km/h 87 % 1.02 mm
06:54 6.4 °C 4.4 °C 1005.6 hPa North 16.7 km/h 11.9 km/h 87 % 1.02 mm
06:59 6.3 °C 4.3 °C 1005.6 hPa West 22.2 km/h 16.1 km/h 87 % 1.52 mm
07:04 6.3 °C 4.3 °C 1005.6 hPa North 22.2 km/h 12.7 km/h 87 % 1.78 mm
07:09 6.2 °C 4.2 °C 1006 hPa WSW 27.8 km/h 17.5 km/h 87 % 2.03 mm
07:14 6.2 °C 4.2 °C 1006 hPa WSW 25.7 km/h 17.2 km/h 87 % 2.03 mm
07:19 6.2 °C 4.2 °C 1006 hPa North 20.4 km/h 16.4 km/h 87 % 2.29 mm
07:24 6.3 °C 4.3 °C 1006 hPa West 25.9 km/h 15 km/h 87 % 2.79 mm
07:29 6.3 °C 4.3 °C 1006 hPa West 13 km/h 10.8 km/h 87 % 2.54 mm
07:34 6.3 °C 4.3 °C 1006 hPa WNW 18.5 km/h 17.4 km/h 87 % 2.54 mm
07:39 6.3 °C 4.3 °C 1006.3 hPa WSW 16.1 km/h 11.9 km/h 87 % 2.54 mm
07:44 6.4 °C 4.6 °C 1006.3 hPa West 31.5 km/h 20.3 km/h 88 % 2.54 mm
07:49 6.4 °C 4.4 °C 1006.7 hPa North 18.5 km/h 12.4 km/h 87 % 2.29 mm
07:54 6.5 °C 4.5 °C 1006.7 hPa North 18.5 km/h 12.7 km/h 87 % 2.29 mm
07:59 6.5 °C 4.5 °C 1006.7 hPa West 19.3 km/h 15.9 km/h 87 % 2.03 mm
08:04 6.7 °C 4.6 °C 1006.7 hPa West 25.9 km/h 21.4 km/h 86 % 1.52 mm
08:09 6.9 °C 4.4 °C 1007 hPa West 25.9 km/h 16.9 km/h 84 % 1.52 mm
08:14 7.2 °C 4.3 °C 1007 hPa SW 25.7 km/h 18.5 km/h 82 % 1.52 mm
08:19 7.3 °C 4.2 °C 1007 hPa West 29.6 km/h 19.3 km/h 81 % 1.27 mm
08:24 7.3 °C 4.1 °C 1007 hPa North 31.5 km/h 18.2 km/h 80 % 0.51 mm
08:29 7.3 °C 4.1 °C 1007.3 hPa WSW 24.1 km/h 18 km/h 80 % 0.51 mm
08:34 7.4 °C 4.1 °C 1007.3 hPa West 22.2 km/h 14.8 km/h 79 % 0.51 mm
08:39 7.5 °C 4.1 °C 1007.7 hPa WSW 22.2 km/h 14.6 km/h 79 % 0.51 mm
08:44 7.6 °C 4.2 °C 1008 hPa WSW 22.5 km/h 18.5 km/h 79 % 0.25 mm
08:49 7.7 °C 4.1 °C 1008 hPa WSW 31.5 km/h 20.9 km/h 78 % 0.25 mm
08:54 7.8 °C 4 °C 1008 hPa West 38.9 km/h 21.4 km/h 77 % 0.25 mm
08:59 7.7 °C 3.9 °C 1008.4 hPa WSW 18.5 km/h 15.1 km/h 77 % 0.25 mm
09:04 7.6 °C 4 °C 1008.4 hPa North 22.2 km/h 13.7 km/h 78 % 0.25 mm
09:09 7.8 °C 4 °C 1008.4 hPa West 25.9 km/h 17.1 km/h 77 % 0.25 mm
09:14 8 °C 4 °C 1008.4 hPa West 20.4 km/h 15.1 km/h 76 % 0 mm
09:19 8.1 °C 4.1 °C 1008.4 hPa WSW 18.5 km/h 13.5 km/h 76 % 0 mm
09:24 8.2 °C 4.1 °C 1008.7 hPa West 18.5 km/h 15.3 km/h 75 % 0 mm
09:29 8.3 °C 4.1 °C 1009 hPa SW 27.4 km/h 20.9 km/h 75 % 0 mm
09:34 8.4 °C 4.2 °C 1009 hPa WSW 27.8 km/h 20 km/h 75 % 0 mm
09:39 8.3 °C 4.2 °C 1009 hPa WSW 31.5 km/h 19.8 km/h 75 % 0 mm
09:44 8.3 °C 4.1 °C 1009.4 hPa West 32.2 km/h 19.8 km/h 75 % 0 mm
09:49 8.2 °C 4.2 °C 1009.7 hPa WSW 33.3 km/h 27.5 km/h 76 % 0 mm
09:54 8 °C 4.2 °C 1009.7 hPa WSW 31.5 km/h 19.3 km/h 77 % 0 mm
09:59 7.8 °C 4.2 °C 1009.7 hPa West 31.5 km/h 15.9 km/h 78 % 0 mm
10:04 7.8 °C 4.2 °C 1010 hPa West 31.5 km/h 24.3 km/h 78 % 0 mm
10:09 7.8 °C 4.4 °C 1010 hPa West 19.3 km/h 15.6 km/h 79 % 0 mm
10:14 8.1 °C 4.6 °C 1010 hPa West 25.9 km/h 14.6 km/h 79 % 0 mm
10:19 8.3 °C 4.7 °C 1010 hPa WSW 29.6 km/h 14.2 km/h 78 % 0 mm
10:24 8.3 °C 4.7 °C 1010.4 hPa WSW 29 km/h 26.2 km/h 78 % 0 mm
10:29 8.5 °C 4.9 °C 1010.4 hPa WSW 22.2 km/h 20 km/h 78 % 0 mm
10:34 8.5 °C 4.7 °C 1010.7 hPa WSW 24.1 km/h 22.2 km/h 77 % 0 mm
10:39 8.3 °C 4.7 °C 1010.7 hPa North 22.2 km/h 14.3 km/h 78 % 0 mm
10:44 8.4 °C 5 °C 1010.7 hPa WSW 24.1 km/h 22 km/h 79 % 0 mm
10:49 8.5 °C 4.7 °C 1011.1 hPa WSW 38.9 km/h 26.1 km/h 77 % 0 mm
10:54 8.6 °C 4.9 °C 1011.1 hPa WSW 29.6 km/h 24 km/h 78 % 0 mm
10:59 8.7 °C 4.9 °C 1011.1 hPa SW 24.1 km/h 16.1 km/h 77 % 0 mm
11:04 8.7 °C 4.7 °C 1011.1 hPa SW 35.2 km/h 15.9 km/h 76 % 0 mm
11:09 8.7 °C 4.8 °C 1011.4 hPa SW 22.5 km/h 21.9 km/h 77 % 0 mm
11:14 8.7 °C 4.8 °C 1011.1 hPa WSW 18.5 km/h 13 km/h 77 % 0 mm
11:19 8.7 °C 4.7 °C 1011.4 hPa SW 29 km/h 21.9 km/h 76 % 0 mm
11:24 8.7 °C 4.7 °C 1011.4 hPa WSW 22.2 km/h 14.8 km/h 76 % 0 mm
11:29 8.8 °C 4.8 °C 1011.4 hPa SW 31.5 km/h 27.2 km/h 76 % 0 mm
11:34 9 °C 4.8 °C 1011.4 hPa SSW 29.6 km/h 20.6 km/h 75 % 0 mm
11:39 8.9 °C 4.6 °C 1011.4 hPa WSW 29.6 km/h 23.3 km/h 74 % 0 mm
11:44 8.9 °C 4.7 °C 1011.4 hPa SW 16.1 km/h 12.2 km/h 75 % 0 mm
11:49 9.1 °C 5.1 °C 1011.4 hPa SSW 27.8 km/h 15 km/h 76 % 0 mm
11:54 9.1 °C 4.5 °C 1011.4 hPa WSW 38.9 km/h 30.1 km/h 73 % 0 mm
11:59 8.8 °C 4.3 °C 1011.7 hPa West 33.3 km/h 21.4 km/h 73 % 0 mm
12:04 8.9 °C 4.7 °C 1011.7 hPa WSW 31.5 km/h 17.2 km/h 75 % 0 mm
12:09 9 °C 4.6 °C 1011.7 hPa North 33.3 km/h 20.1 km/h 74 % 0 mm
12:14 9 °C 4.6 °C 1011.7 hPa WSW 31.5 km/h 22 km/h 74 % 0 mm
12:19 9.2 °C 4.6 °C 1011.4 hPa WSW 37 km/h 29.8 km/h 73 % 0 mm
12:24 9.4 °C 5.4 °C 1011.4 hPa WSW 35.2 km/h 23 km/h 76 % 0 mm
12:29 9.4 °C 4.2 °C 1011.7 hPa WSW 46.3 km/h 29.1 km/h 70 % 0 mm
12:34 9.6 °C 4.4 °C 1011.4 hPa WSW 29.6 km/h 24.5 km/h 70 % 0 mm
12:39 9.6 °C 4.2 °C 1011.7 hPa SW 45.1 km/h 34.3 km/h 69 % 0 mm
12:44 9.7 °C 3.9 °C 1011.7 hPa SW 42.6 km/h 24.8 km/h 67 % 0 mm
12:49 9.5 °C 3.7 °C 1011.7 hPa North 40.7 km/h 21.7 km/h 67 % 0 mm
12:54 9.4 °C 4.1 °C 1011.7 hPa SW 40.7 km/h 31.1 km/h 69 % 0 mm
12:59 9.5 °C 3.9 °C 1012.1 hPa WSW 38.9 km/h 28 km/h 68 % 0 mm
13:04 9.6 °C 3.6 °C 1012.1 hPa West 50 km/h 31.4 km/h 66 % 0 mm
13:09 9.7 °C 3.8 °C 1012.1 hPa North 37 km/h 21.4 km/h 67 % 0 mm
13:14 9.5 °C 3.9 °C 1012.1 hPa SW 50 km/h 26.6 km/h 68 % 0 mm
13:19 9.2 °C 4.2 °C 1012.8 hPa SW 46.7 km/h 32.5 km/h 71 % 0 mm
13:24 7.7 °C 3.5 °C 1012.8 hPa West 37 km/h 25.3 km/h 75 % 0.25 mm
13:29 7.3 °C 3.9 °C 1012.4 hPa WSW 31.5 km/h 19.8 km/h 79 % 0.25 mm
13:34 7.4 °C 4.4 °C 1012.4 hPa SW 24.1 km/h 14.5 km/h 81 % 0.25 mm
13:39 7.9 °C 4.7 °C 1012.4 hPa SW 29.6 km/h 26.6 km/h 80 % 0.25 mm
13:44 8.4 °C 4.9 °C 1012.4 hPa WSW 22.5 km/h 18.3 km/h 79 % 0.25 mm
13:49 8.7 °C 5.1 °C 1012.4 hPa WSW 31.5 km/h 17.2 km/h 78 % 0.25 mm
13:54 9 °C 5 °C 1012.4 hPa SW 20.4 km/h 13.7 km/h 76 % 0.25 mm
13:59 9.2 °C 4.8 °C 1012.4 hPa SSW 29 km/h 26.1 km/h 74 % 0.25 mm
14:04 9.3 °C 4.6 °C 1012.4 hPa SW 35.2 km/h 26.9 km/h 72 % 0.25 mm
14:09 9.6 °C 4.9 °C 1012.4 hPa WSW 35.2 km/h 18 km/h 73 % 0.25 mm
14:14 9.6 °C 4.4 °C 1012.4 hPa SSW 38.9 km/h 15.3 km/h 70 % 0.25 mm
14:19 9.7 °C 4.4 °C 1012.4 hPa WSW 35.4 km/h 21.7 km/h 70 % 0.25 mm
14:24 9.5 °C 4.3 °C 1012.8 hPa SSW 29.6 km/h 26.2 km/h 70 % 0 mm
14:29 9.6 °C 4.4 °C 1012.8 hPa SW 37 km/h 27.4 km/h 70 % 0 mm
14:34 9.7 °C 4.3 °C 1012.8 hPa SW 31.5 km/h 16.4 km/h 69 % 0 mm
14:39 9.6 °C 4 °C 1013.1 hPa SW 33.3 km/h 25.4 km/h 68 % 0 mm
14:44 9.6 °C 4.4 °C 1013.1 hPa SW 31.5 km/h 16.4 km/h 70 % 0 mm
14:49 9.6 °C 4.6 °C 1013.1 hPa WSW 13 km/h 8.7 km/h 71 % 0 mm
14:54 9.5 °C 4.9 °C 1013.4 hPa West 40.2 km/h 23.7 km/h 73 % 0 mm
14:59 8.8 °C 4.9 °C 1013.4 hPa SW 24.1 km/h 17.4 km/h 77 % 0.25 mm
15:04 8.4 °C 4.7 °C 1013.4 hPa SW 29.6 km/h 20 km/h 77 % 0.25 mm
15:09 8.6 °C 4.6 °C 1013.4 hPa WSW 33.3 km/h 23.2 km/h 76 % 0.25 mm
15:14 8.8 °C 4.6 °C 1013.4 hPa SW 24.1 km/h 18 km/h 75 % 0.25 mm
15:19 9 °C 4.6 °C 1013.8 hPa WSW 25.9 km/h 18.3 km/h 74 % 0.25 mm
15:24 9.2 °C 4.8 °C 1013.8 hPa WSW 27.8 km/h 17.1 km/h 74 % 0.25 mm
15:29 9.2 °C 4.8 °C 1013.8 hPa SW 31.5 km/h 17.9 km/h 74 % 0.25 mm
15:34 9.1 °C 4.8 °C 1014.1 hPa WSW 18.5 km/h 9.2 km/h 75 % 0.25 mm
15:39 9 °C 4.6 °C 1014.1 hPa SW 29.6 km/h 25.1 km/h 74 % 0.25 mm
15:44 9.1 °C 4.3 °C 1014.1 hPa SW 31.5 km/h 21.9 km/h 72 % 0.25 mm
15:49 9.1 °C 4.1 °C 1014.1 hPa WSW 31.5 km/h 18 km/h 71 % 0.25 mm
15:54 9.1 °C 4.3 °C 1014.1 hPa WSW 31.5 km/h 18.8 km/h 72 % 0.25 mm
15:59 9.1 °C 4.5 °C 1014.4 hPa WSW 24.1 km/h 11.7 km/h 73 % 0 mm
16:04 9.1 °C 4.7 °C 1014.4 hPa SW 31.5 km/h 22.5 km/h 74 % 0 mm
16:09 9.1 °C 4.7 °C 1014.4 hPa WSW 25.9 km/h 19.6 km/h 74 % 0 mm
16:14 8.9 °C 4.5 °C 1014.4 hPa SSW 33.3 km/h 22.9 km/h 74 % 0 mm
16:19 8.8 °C 4.4 °C 1014.8 hPa SW 27.8 km/h 15.8 km/h 74 % 0 mm
16:24 8.8 °C 4.7 °C 1014.8 hPa SSW 20.4 km/h 12.6 km/h 75 % 0 mm
16:29 8.8 °C 4.6 °C 1014.8 hPa SW 24.1 km/h 14.6 km/h 75 % 0 mm
16:34 8.7 °C 4.7 °C 1015.1 hPa WSW 24.1 km/h 20.6 km/h 76 % 0 mm
16:39 8.7 °C 4.7 °C 1015.1 hPa WSW 25.9 km/h 13.2 km/h 76 % 0 mm
16:44 8.4 °C 5 °C 1015.1 hPa SSW 27.8 km/h 19.3 km/h 79 % 0.25 mm
16:49 8 °C 5.1 °C 1015.1 hPa North 25.9 km/h 15.3 km/h 82 % 0.25 mm
16:54 7.7 °C 5.2 °C 1015.1 hPa SW 25.9 km/h 19.3 km/h 84 % 0.25 mm
16:59 7.6 °C 5.2 °C 1015.1 hPa SW 16.7 km/h 11.7 km/h 85 % 0.25 mm
17:04 7.6 °C 5.2 °C 1015.1 hPa WSW 9.3 km/h 6.1 km/h 85 % 0.25 mm
17:09 7.6 °C 5.1 °C 1015.1 hPa SW 18.5 km/h 6.8 km/h 84 % 0.25 mm
17:14 7.8 °C 5.1 °C 1015.1 hPa WSW 25.9 km/h 11.1 km/h 83 % 0.25 mm
17:19 7.8 °C 5.1 °C 1015.5 hPa WSW 9.3 km/h 6.9 km/h 83 % 0.25 mm
17:24 7.9 °C 5.2 °C 1015.8 hPa SW 18.5 km/h 9.2 km/h 83 % 0.25 mm
17:29 8 °C 5.1 °C 1015.8 hPa WSW 24.1 km/h 20.9 km/h 82 % 0.25 mm
17:34 7.9 °C 5.1 °C 1015.8 hPa WSW 20.4 km/h 11.4 km/h 82 % 0.25 mm
17:39 7.9 °C 5 °C 1015.8 hPa WSW 18.5 km/h 8.5 km/h 82 % 0.25 mm
17:44 7.8 °C 4.9 °C 1015.8 hPa WSW 25.9 km/h 13.7 km/h 82 % 0 mm
17:49 7.7 °C 4.8 °C 1015.8 hPa WSW 18.5 km/h 13.5 km/h 82 % 0 mm
17:54 7.8 °C 4.9 °C 1016.1 hPa WSW 13 km/h 8.5 km/h 82 % 0 mm
17:59 7.9 °C 4.8 °C 1016.1 hPa West 24.1 km/h 13 km/h 81 % 0 mm
18:04 8 °C 4.8 °C 1016.1 hPa WSW 22.2 km/h 15.6 km/h 80 % 0 mm
18:09 8.1 °C 4.7 °C 1016.1 hPa SW 16.7 km/h 12.4 km/h 79 % 0 mm
18:14 8.2 °C 4.7 °C 1016.1 hPa SW 24.1 km/h 10.9 km/h 79 % 0 mm
18:19 8.2 °C 4.7 °C 1016.1 hPa SW 16.7 km/h 12.2 km/h 79 % 0 mm
18:24 8.2 °C 4.8 °C 1016.1 hPa SW 14.8 km/h 8.7 km/h 79 % 0 mm
18:29 8.2 °C 4.7 °C 1016.5 hPa WSW 19.3 km/h 16.7 km/h 79 % 0 mm
18:34 8.2 °C 4.6 °C 1016.5 hPa SW 20.4 km/h 16.1 km/h 78 % 0 mm
18:39 8.2 °C 4.6 °C 1016.5 hPa WSW 29 km/h 16.4 km/h 78 % 0 mm
18:44 8.2 °C 4.6 °C 1016.5 hPa WSW 22.2 km/h 13.4 km/h 78 % 0 mm
18:49 8.2 °C 4.6 °C 1016.5 hPa WSW 20.4 km/h 13 km/h 78 % 0 mm
18:54 8.1 °C 4.7 °C 1016.5 hPa West 29.6 km/h 19 km/h 79 % 0 mm
18:59 8.1 °C 4.5 °C 1016.5 hPa WSW 16.1 km/h 10.1 km/h 78 % 0 mm
19:04 8.1 °C 4.5 °C 1016.5 hPa WSW 18.5 km/h 16.9 km/h 78 % 0 mm
19:09 8.1 °C 4.5 °C 1016.5 hPa SW 24.1 km/h 19.5 km/h 78 % 0 mm
19:14 8.2 °C 4.6 °C 1016.5 hPa WSW 25.9 km/h 16.1 km/h 78 % 0 mm
19:19 8.2 °C 4.6 °C 1016.5 hPa WSW 22.2 km/h 19 km/h 78 % 0 mm
19:24 8.3 °C 4.7 °C 1016.5 hPa SW 22.5 km/h 16.6 km/h 78 % 0 mm
19:29 8.4 °C 4.8 °C 1016.5 hPa North 16.7 km/h 10.3 km/h 78 % 0 mm
19:34 8.4 °C 4.8 °C 1016.8 hPa WSW 29.6 km/h 15.4 km/h 78 % 0 mm
19:39 8.4 °C 4.8 °C 1016.8 hPa SW 24.1 km/h 15.3 km/h 78 % 0 mm
19:44 8.5 °C 4.9 °C 1016.8 hPa WSW 16.7 km/h 12.4 km/h 78 % 0 mm
19:49 8.5 °C 4.9 °C 1016.8 hPa West 18.5 km/h 16.1 km/h 78 % 0 mm
19:54 8.4 °C 5 °C 1016.8 hPa WSW 18.5 km/h 14.6 km/h 79 % 0 mm
19:59 8.4 °C 5 °C 1016.8 hPa West 18.5 km/h 13.5 km/h 79 % 0 mm
20:04 8.4 °C 5.1 °C 1016.8 hPa North 22.2 km/h 12.7 km/h 80 % 0 mm
20:09 8.4 °C 5.1 °C 1016.8 hPa West 22.2 km/h 13.7 km/h 80 % 0 mm
20:14 8.3 °C 5.3 °C 1017.2 hPa West 24.1 km/h 22.4 km/h 81 % 0 mm
20:19 8.4 °C 5.3 °C 1017.2 hPa West 25.9 km/h 18.7 km/h 81 % 0 mm
20:24 8.4 °C 5.3 °C 1017.2 hPa West 18.5 km/h 14.6 km/h 81 % 0 mm
20:29 8.4 °C 5.3 °C 1017.2 hPa West 22.5 km/h 14.5 km/h 81 % 0 mm
20:34 8.4 °C 5.4 °C 1017.2 hPa WSW 31.5 km/h 15.9 km/h 81 % 0 mm
20:39 8.5 °C 5.2 °C 1017.2 hPa SW 29.6 km/h 20 km/h 80 % 0 mm
20:44 8.6 °C 5.5 °C 1017.2 hPa WSW 20.4 km/h 10.6 km/h 81 % 0 mm
20:49 8.4 °C 5.4 °C 1017.5 hPa WSW 31.5 km/h 22 km/h 81 % 0 mm
20:54 8.3 °C 5.6 °C 1017.5 hPa WSW 18.5 km/h 11.9 km/h 83 % 0 mm
20:59 8.1 °C 5.7 °C 1017.5 hPa SW 17.7 km/h 10.9 km/h 85 % 0 mm
21:04 7.9 °C 5.6 °C 1017.5 hPa SW 16.7 km/h 10.1 km/h 85 % 0 mm
21:09 7.9 °C 5.5 °C 1017.5 hPa WSW 27.8 km/h 16.9 km/h 85 % 0 mm
21:14 7.9 °C 5.5 °C 1017.2 hPa West 18.5 km/h 17.9 km/h 85 % 0 mm
21:19 7.9 °C 5.4 °C 1017.5 hPa West 20.4 km/h 13.7 km/h 84 % 0 mm
21:24 7.9 °C 5.4 °C 1017.5 hPa West 24.1 km/h 14.5 km/h 84 % 0 mm
21:29 8 °C 5.4 °C 1017.5 hPa WSW 18.5 km/h 11.4 km/h 84 % 0 mm
21:34 8.2 °C 5.6 °C 1017.5 hPa WSW 31.5 km/h 24.8 km/h 84 % 0 mm
21:39 8.3 °C 5.6 °C 1017.8 hPa West 25.9 km/h 14.5 km/h 83 % 0 mm
21:44 8.3 °C 5.8 °C 1017.8 hPa West 25.9 km/h 16.3 km/h 84 % 0 mm
21:49 8.2 °C 5.7 °C 1017.8 hPa West 31.5 km/h 19.3 km/h 84 % 0 mm
21:54 8.2 °C 5.7 °C 1017.5 hPa West 31.5 km/h 18.3 km/h 84 % 0 mm
21:59 8.2 °C 5.7 °C 1017.8 hPa WSW 18.5 km/h 13.2 km/h 84 % 0 mm
22:04 8.2 °C 5.7 °C 1017.5 hPa West 18.5 km/h 18.2 km/h 84 % 0 mm
22:09 8.2 °C 5.6 °C 1017.5 hPa WSW 22.2 km/h 14 km/h 84 % 0 mm
22:14 8.2 °C 5.4 °C 1017.5 hPa North 18.5 km/h 16.7 km/h 83 % 0 mm
22:19 8.2 °C 5.5 °C 1017.5 hPa WSW 20.4 km/h 14.2 km/h 83 % 0 mm
22:24 8.3 °C 5.4 °C 1017.5 hPa WSW 24.1 km/h 14 km/h 82 % 0 mm
22:29 8.4 °C 5.5 °C 1017.5 hPa WSW 29.6 km/h 22.2 km/h 82 % 0 mm
22:34 8.6 °C 5.5 °C 1017.8 hPa North 22.2 km/h 13.7 km/h 81 % 0 mm
22:39 8.7 °C 5.4 °C 1017.8 hPa WSW 24.1 km/h 14.3 km/h 80 % 0 mm
22:44 8.7 °C 5.4 °C 1017.5 hPa WSW 14.8 km/h 13.2 km/h 80 % 0 mm
22:49 8.7 °C 5.4 °C 1017.5 hPa WSW 22.2 km/h 13.2 km/h 80 % 0 mm
22:54 8.7 °C 5.6 °C 1017.8 hPa WSW 20.4 km/h 8.4 km/h 81 % 0 mm
22:59 8.7 °C 5.6 °C 1017.8 hPa WNW 20.9 km/h 16.7 km/h 81 % 0 mm
23:04 8.8 °C 5.7 °C 1017.8 hPa WSW 20.4 km/h 15 km/h 81 % 0 mm
23:09 8.8 °C 5.7 °C 1017.8 hPa WSW 24.1 km/h 17.7 km/h 81 % 0 mm
23:14 8.8 °C 5.7 °C 1017.8 hPa WSW 18.5 km/h 6.6 km/h 81 % 0 mm
23:19 8.8 °C 5.7 °C 1017.8 hPa WSW 22.2 km/h 13.5 km/h 81 % 0 mm
23:24 8.9 °C 5.8 °C 1017.8 hPa SW 22.5 km/h 12.7 km/h 81 % 0 mm
23:29 8.9 °C 5.8 °C 1017.8 hPa WSW 20.4 km/h 14.2 km/h 81 % 0 mm
23:34 9 °C 5.7 °C 1017.8 hPa West 20.4 km/h 11.7 km/h 80 % 0 mm
23:39 9 °C 5.9 °C 1017.8 hPa WSW 17.7 km/h 12.9 km/h 81 % 0 mm
23:44 9.1 °C 5.9 °C 1017.8 hPa WSW 17.7 km/h 13.5 km/h 81 % 0 mm
23:49 9.1 °C 5.9 °C 1017.8 hPa West 22.2 km/h 14 km/h 81 % 0 mm
23:54 9.1 °C 5.9 °C 1017.5 hPa WSW 22.2 km/h 13.4 km/h 81 % 0 mm
23:59 9.1 °C 5.9 °C 1017.5 hPa WSW 18.5 km/h 15.1 km/h 81 % 0 mm
Ararat Weather
Compliments of Weather Underground - 2.25 mb
Click here to send mail.


ABOUT

Live weather data from Ararat, Victoria, Australia, 3377
Data uploaded from Cumulus every 5 minutes to Weather Underground.
This site then downloads the raw data for formatting and display.
Metric and imperial data can be displayed. Graphs and historical data available.
Includes Sun and Moon times and rain image live from BOM.

Check out Ararat Weather on Facebook, Twitter and Google +

Help support ongoing costs by checking out the ads





Follow @AraratWeather